Time;durP1;ratioP1;P1;durP2;ratioP2;P2;SDS_P1;SDS_P2;PMS_P1;PMS_P2;Temp;Humidity;BMP_temperature;BMP_pressure;BME280_temperature;BME280_humidity;BME280_pressure;Samples;Min_cycle;Max_cycle;Signal;HPM_P1;HPM_P2
2022/08/07 04:00:57;;;;;;;7.82;4.97;;;11.00;99.90;;;;;;5752351;23;20387;-83
2022/08/07 04:03:24;;;;;;;8.50;4.90;;;11.10;99.90;;;;;;4942026;29;20434;-85
2022/08/07 04:05:50;;;;;;;8.35;5.68;;;11.10;99.90;;;;;;4960501;28;20117;-87
2022/08/07 04:08:32;;;;;;;7.45;4.70;;;11.00;99.90;;;;;;4958101;29;20434;-90
2022/08/07 04:10:59;;;;;;;6.75;4.35;;;11.10;99.90;;;;;;4958194;28;20040;-88
2022/08/07 04:13:25;;;;;;;5.88;4.13;;;11.00;99.90;;;;;;4958101;29;20039;-90
2022/08/07 04:15:51;;;;;;;6.82;4.20;;;11.10;99.90;;;;;;4959711;28;20090;-87
2022/08/07 04:18:17;;;;;;;7.00;4.20;;;11.10;99.90;;;;;;4943104;29;20039;-87
2022/08/07 04:20:42;;;;;;;7.80;4.88;;;11.00;99.90;;;;;;4943212;29;20463;-89
2022/08/07 04:23:09;;;;;;;7.63;4.80;;;11.00;99.90;;;;;;4960715;28;20078;-86
2022/08/07 04:25:39;;;;;;;7.75;5.10;;;10.90;99.90;;;;;;4958752;28;20089;-87
2022/08/07 04:28:06;;;;;;;7.65;4.85;;;10.90;99.90;;;;;;4959929;28;20145;-89
2022/08/07 04:30:34;;;;;;;7.32;4.50;;;10.90;99.90;;;;;;4957508;28;20050;-89
2022/08/07 04:33:04;;;;;;;7.55;4.90;;;10.90;99.90;;;;;;4959902;29;20098;-88
2022/08/07 04:35:30;;;;;;;6.50;4.40;;;10.90;99.90;;;;;;4960154;28;20043;-90
2022/08/07 04:37:55;;;;;;;7.88;4.57;;;10.90;99.90;;;;;;4958993;29;20098;-88
2022/08/07 04:40:22;;;;;;;7.47;5.40;;;10.90;99.90;;;;;;4961151;28;20126;-89
2022/08/07 04:42:48;;;;;;;8.13;5.80;;;10.90;99.90;;;;;;4958411;29;20050;-89
2022/08/07 04:45:14;;;;;;;8.27;5.63;;;10.80;99.90;;;;;;4961251;28;20032;-89
2022/08/07 04:47:53;;;;;;;7.90;5.45;;;10.80;99.90;;;;;;4956929;29;20039;-85
2022/08/07 04:50:50;;;;;;;8.65;4.70;;;10.80;99.90;;;;;;4958958;28;20039;-89
2022/08/07 04:53:33;;;;;;;7.07;4.82;;;10.70;99.90;;;;;;4957471;29;20463;-87
2022/08/07 04:56:25;;;;;;;8.57;5.13;;;10.70;99.90;;;;;;4959057;29;20443;-88
2022/08/07 04:59:13;;;;;;;8.07;4.97;;;10.70;99.90;;;;;;4958702;28;20043;-88
2022/08/07 05:02:12;;;;;;;9.93;5.88;;;10.70;99.90;;;;;;4957043;28;20039;-85
2022/08/07 05:04:41;;;;;;;9.25;5.72;;;10.70;99.90;;;;;;4957536;29;20050;-90
2022/08/07 05:07:18;;;;;;;8.80;5.25;;;10.80;99.90;;;;;;4943427;29;20102;-87
2022/08/07 05:10:00;;;;;;;7.97;5.30;;;10.80;99.90;;;;;;4958369;29;20063;-89
2022/08/07 05:12:33;;;;;;;10.75;5.70;;;10.80;99.90;;;;;;4957947;28;20127;-86
2022/08/07 05:15:15;;;;;;;9.15;5.63;;;10.90;99.90;;;;;;4956907;29;20051;-91
2022/08/07 05:18:04;;;;;;;10.85;6.50;;;11.00;99.90;;;;;;4959985;28;20150;-86
2022/08/07 05:20:43;;;;;;;9.95;5.75;;;11.10;99.90;;;;;;4940978;28;20047;-89
2022/08/07 05:23:15;;;;;;;11.23;6.35;;;11.10;99.90;;;;;;4956950;29;20403;-82
2022/08/07 05:25:42;;;;;;;11.45;6.60;;;11.20;99.90;;;;;;4956082;29;20047;-88
2022/08/07 05:28:09;;;;;;;11.35;6.47;;;11.20;99.90;;;;;;4956212;28;20466;-83
2022/08/07 05:30:37;;;;;;;11.93;6.75;;;11.30;99.90;;;;;;4961858;28;20046;-88
2022/08/07 05:36:32;;;;;;;12.00;6.75;;;11.40;99.90;;;;;;4960424;29;20048;-87
2022/08/07 05:39:36;;;;;;;10.32;6.40;;;11.40;99.90;;;;;;4959812;29;20054;-88
2022/08/07 05:42:21;;;;;;;11.68;6.78;;;11.50;99.90;;;;;;4953931;29;20058;-88
2022/08/07 05:48:39;;;;;;;13.18;8.05;;;11.60;99.90;;;;;;4962043;29;20423;-86
2022/08/07 05:51:05;;;;;;;17.05;9.27;;;11.60;99.90;;;;;;4961800;28;20415;-86
2022/08/07 05:53:31;;;;;;;18.77;10.20;;;11.60;99.90;;;;;;4960931;29;20487;-88
2022/08/07 05:55:58;;;;;;;16.52;10.00;;;11.80;99.90;;;;;;4960319;29;20045;-86
2022/08/07 05:58:25;;;;;;;18.70;11.82;;;11.80;99.90;;;;;;4960452;29;20391;-84
2022/08/07 06:00:52;;;;;;;17.98;11.50;;;11.90;99.90;;;;;;4959453;28;20106;-88
2022/08/07 06:03:20;;;;;;;20.00;10.18;;;12.00;99.90;;;;;;4960535;29;20138;-87
2022/08/07 06:05:47;;;;;;;22.67;8.90;;;12.10;99.90;;;;;;4961277;28;20114;-86
2022/08/07 06:08:16;;;;;;;14.88;8.45;;;12.20;99.90;;;;;;4958823;29;20043;-86
2022/08/07 06:10:43;;;;;;;17.48;9.30;;;12.20;99.90;;;;;;4960403;28;20056;-85
2022/08/07 06:13:09;;;;;;;13.13;8.63;;;12.30;99.90;;;;;;4959483;29;20151;-75
2022/08/07 06:15:35;;;;;;;17.35;10.02;;;12.40;99.90;;;;;;4958012;29;20211;-84
2022/08/07 06:18:02;;;;;;;15.50;9.32;;;12.40;99.90;;;;;;4957465;29;20566;-84
2022/08/07 06:20:30;;;;;;;17.02;10.02;;;12.50;99.90;;;;;;4957817;28;20054;-83
2022/08/07 06:22:56;;;;;;;21.58;10.40;;;12.70;99.90;;;;;;4959098;28;20098;-82
2022/08/07 06:25:22;;;;;;;16.20;9.55;;;12.70;99.90;;;;;;4958239;29;20360;-83
2022/08/07 06:27:48;;;;;;;15.52;9.77;;;12.80;99.90;;;;;;4957751;29;20170;-82
2022/08/07 06:30:13;;;;;;;16.20;8.98;;;12.90;99.90;;;;;;4957841;28;20046;-83
2022/08/07 06:32:39;;;;;;;15.38;8.77;;;13.00;99.90;;;;;;4941855;29;20483;-80
2022/08/07 06:35:05;;;;;;;14.70;9.32;;;13.10;99.90;;;;;;4941694;29;20039;-84
2022/08/07 06:37:31;;;;;;;13.25;8.10;;;13.20;99.90;;;;;;4957663;29;20599;-83
2022/08/07 06:39:56;;;;;;;10.18;7.10;;;13.40;99.90;;;;;;4957305;28;20122;-81
2022/08/07 06:42:36;;;;;;;12.18;7.93;;;13.50;99.90;;;;;;4957242;28;20066;-82
2022/08/07 06:45:05;;;;;;;11.48;7.88;;;13.60;99.90;;;;;;4957430;29;20240;-84
2022/08/07 06:47:34;;;;;;;13.60;8.07;;;13.70;99.90;;;;;;4958572;29;20392;-84
2022/08/07 06:50:00;;;;;;;11.05;7.65;;;13.80;99.90;;;;;;4957665;29;20043;-85
2022/08/07 06:52:34;;;;;;;13.60;9.25;;;13.90;99.90;;;;;;4957536;28;20039;-81
2022/08/07 06:55:00;;;;;;;15.45;8.23;;;14.00;99.90;;;;;;4958363;28;20035;-81
2022/08/07 06:57:30;;;;;;;14.48;8.30;;;14.10;99.90;;;;;;4958497;28;20083;-84
2022/08/07 06:59:58;;;;;;;11.68;6.50;;;14.30;99.90;;;;;;4959525;28;20065;-84
2022/08/07 07:02:25;;;;;;;12.20;6.60;;;14.40;99.90;;;;;;4957069;28;20051;-83
2022/08/07 07:04:51;;;;;;;13.30;7.25;;;14.50;99.90;;;;;;4941271;29;20479;-82
2022/08/07 07:07:17;;;;;;;4.72;3.10;;;14.50;99.90;;;;;;4957114;29;20344;-84
2022/08/07 07:09:48;;;;;;;5.30;3.15;;;14.60;99.90;;;;;;4957043;29;20062;-84
2022/08/07 07:12:37;;;;;;;4.43;2.65;;;14.70;99.90;;;;;;4956819;28;20039;-83
2022/08/07 07:15:26;;;;;;;5.28;2.72;;;14.80;99.90;;;;;;4957068;29;20047;-83
2022/08/07 07:18:01;;;;;;;8.85;4.13;;;14.80;99.90;;;;;;4956939;29;20039;-82
2022/08/07 07:20:51;;;;;;;5.45;3.13;;;14.90;99.90;;;;;;4956867;28;20062;-84
2022/08/07 07:23:18;;;;;;;7.30;3.67;;;15.00;99.90;;;;;;4956229;28;20094;-84
2022/08/07 07:25:47;;;;;;;5.47;3.38;;;15.10;99.90;;;;;;4956779;29;20444;-83
2022/08/07 07:28:26;;;;;;;6.40;3.33;;;15.20;99.90;;;;;;4956824;29;20462;-84
2022/08/07 07:31:11;;;;;;;7.45;4.18;;;15.30;99.90;;;;;;4956735;28;20078;-84
2022/08/07 07:33:38;;;;;;;7.47;5.18;;;15.30;99.90;;;;;;4956554;29;20533;-82
2022/08/07 07:36:04;;;;;;;8.60;5.07;;;15.40;99.90;;;;;;4958094;28;20119;-83
2022/08/07 07:38:31;;;;;;;5.78;4.07;;;15.50;99.90;;;;;;4956544;29;20055;-83
2022/08/07 07:41:02;;;;;;;5.47;3.75;;;15.60;99.90;;;;;;4956419;28;20054;-83
2022/08/07 07:43:31;;;;;;;12.38;3.58;;;15.70;99.90;;;;;;4956420;29;20558;-82
2022/08/07 07:45:59;;;;;;;6.03;3.75;;;15.70;99.90;;;;;;4940403;29;20525;-84
2022/08/07 07:48:28;;;;;;;5.28;3.38;;;15.80;99.90;;;;;;4958193;28;20122;-83
2022/08/07 07:50:55;;;;;;;6.60;3.28;;;15.90;99.90;;;;;;4957573;28;20046;-83
2022/08/07 07:53:22;;;;;;;5.00;2.70;;;15.90;99.90;;;;;;4956271;29;20042;-84
2022/08/07 07:55:51;;;;;;;5.55;2.60;;;16.00;99.90;;;;;;4956551;29;20051;-82
2022/08/07 07:58:18;;;;;;;5.30;2.97;;;16.10;99.90;;;;;;4956417;29;20129;-83
2022/08/07 08:00:45;;;;;;;7.07;3.42;;;16.20;99.90;;;;;;4957459;28;20043;-82
2022/08/07 08:03:14;;;;;;;5.65;2.75;;;16.30;99.90;;;;;;4955840;29;20043;-83
2022/08/07 08:05:41;;;;;;;5.63;3.00;;;16.30;99.90;;;;;;4955896;29;20039;-82
2022/08/07 08:08:10;;;;;;;6.50;3.60;;;16.30;99.90;;;;;;4956457;29;20439;-82
2022/08/07 08:10:36;;;;;;;5.65;3.38;;;16.40;99.90;;;;;;4957143;28;20043;-83
2022/08/07 08:13:05;;;;;;;4.80;3.50;;;16.40;99.90;;;;;;4957567;28;20415;-82
2022/08/07 08:15:38;;;;;;;7.25;3.47;;;16.50;99.90;;;;;;4955961;29;20120;-82
2022/08/07 08:18:10;;;;;;;6.90;3.42;;;16.50;99.90;;;;;;4957326;28;20070;-82
2022/08/07 08:20:38;;;;;;;7.35;4.10;;;16.60;99.90;;;;;;4957297;28;20075;-83
2022/08/07 08:28:54;;;;;;;6.18;3.60;;;16.90;99.90;;;;;;4954204;28;20120;-83
2022/08/07 08:31:28;;;;;;;5.85;3.40;;;16.90;99.90;;;;;;4951581;28;20062;-85
2022/08/07 08:33:55;;;;;;;5.75;3.50;;;16.90;99.90;;;;;;4957006;29;20039;-84
2022/08/07 08:36:25;;;;;;;7.03;2.90;;;17.10;99.90;;;;;;4955514;29;20079;-86
2022/08/07 08:38:52;;;;;;;6.05;3.40;;;17.20;99.90;;;;;;4956394;29;20503;-80
2022/08/07 08:41:35;;;;;;;5.82;3.70;;;17.30;99.90;;;;;;4956668;28;20399;-81
2022/08/07 08:44:14;;;;;;;6.45;3.60;;;17.30;99.90;;;;;;4955935;29;20042;-82
2022/08/07 08:47:01;;;;;;;9.15;4.53;;;17.40;99.90;;;;;;4964810;28;20073;-79
2022/08/07 08:49:41;;;;;;;6.35;4.00;;;17.50;99.90;;;;;;4969361;28;20406;-83
2022/08/07 08:52:25;;;;;;;5.57;3.30;;;17.60;99.90;;;;;;4968622;28;20074;-78
2022/08/07 08:55:01;;;;;;;6.25;3.83;;;17.60;99.90;;;;;;4962617;29;20043;-83
2022/08/07 08:57:38;;;;;;;4.82;3.40;;;17.70;99.90;;;;;;4955615;29;20121;-82
2022/08/07 09:00:07;;;;;;;7.38;3.45;;;17.80;99.90;;;;;;4955551;29;20051;-82
2022/08/07 09:02:56;;;;;;;6.93;3.60;;;17.90;99.90;;;;;;4954990;28;20072;-81
2022/08/07 09:05:28;;;;;;;5.80;3.08;;;18.00;99.90;;;;;;4955173;29;20128;-82
2022/08/07 09:08:18;;;;;;;4.53;2.88;;;18.20;99.90;;;;;;4955127;29;20044;-82
2022/08/07 09:11:05;;;;;;;6.07;3.05;;;18.30;99.90;;;;;;4955850;28;20051;-83
2022/08/07 09:14:02;;;;;;;5.63;3.38;;;18.40;99.90;;;;;;4955636;29;20115;-83
2022/08/07 09:16:47;;;;;;;4.72;3.17;;;18.60;99.90;;;;;;4954751;29;20038;-83
2022/08/07 09:19:29;;;;;;;5.47;3.30;;;18.80;99.90;;;;;;4954887;29;20051;-83
2022/08/07 09:22:18;;;;;;;6.32;3.13;;;18.90;99.90;;;;;;4954660;28;20047;-85
2022/08/07 09:25:05;;;;;;;5.50;3.10;;;19.10;99.90;;;;;;4954952;29;20492;-83
2022/08/07 09:28:00;;;;;;;6.65;3.38;;;19.00;99.90;;;;;;4954820;29;20047;-84
2022/08/07 09:30:49;;;;;;;5.10;3.10;;;19.00;99.90;;;;;;4955253;28;20046;-84
2022/08/07 09:33:31;;;;;;;5.90;3.00;;;19.10;99.90;;;;;;4950982;29;20079;-84
2022/08/07 09:36:14;;;;;;;5.53;2.67;;;19.10;99.90;;;;;;4955043;29;20039;-82
2022/08/07 09:39:15;;;;;;;6.85;2.92;;;19.10;99.90;;;;;;4954829;29;20055;-83
2022/08/07 09:42:04;;;;;;;5.68;2.55;;;19.20;99.90;;;;;;4955109;28;20376;-84
2022/08/07 09:44:36;;;;;;;3.50;2.40;;;19.40;99.90;;;;;;4955790;29;20062;-84
2022/08/07 09:47:24;;;;;;;3.35;2.10;;;19.60;99.90;;;;;;4955030;29;20512;-82
2022/08/07 09:50:02;;;;;;;4.07;2.08;;;19.70;99.90;;;;;;4956541;28;20051;-84
2022/08/07 09:52:34;;;;;;;5.15;2.20;;;19.80;99.90;;;;;;4956063;28;20071;-83
2022/08/07 09:55:32;;;;;;;4.72;2.13;;;19.90;99.90;;;;;;4954817;29;20039;-84
2022/08/07 09:58:37;;;;;;;5.60;2.30;;;20.00;99.90;;;;;;4954539;29;20082;-83
2022/08/07 10:01:29;;;;;;;3.42;2.03;;;20.10;99.90;;;;;;4954295;28;20051;-81
2022/08/07 10:04:20;;;;;;;3.28;2.22;;;20.20;99.90;;;;;;4955174;29;20051;-84
2022/08/07 10:07:12;;;;;;;4.10;2.45;;;20.20;99.90;;;;;;4954747;29;20162;-83
2022/08/07 10:09:43;;;;;;;3.38;2.05;;;20.30;99.90;;;;;;4954765;29;20047;-83
2022/08/07 10:12:14;;;;;;;3.80;2.13;;;20.40;99.90;;;;;;4954679;28;20122;-83
2022/08/07 10:15:02;;;;;;;3.47;1.95;;;20.50;99.90;;;;;;4955559;28;20050;-83
2022/08/07 10:17:30;;;;;;;3.60;2.08;;;20.60;99.90;;;;;;4957982;29;20055;-83
2022/08/07 10:20:20;;;;;;;3.88;2.03;;;20.70;99.90;;;;;;4957898;29;20065;-81
2022/08/07 10:22:51;;;;;;;4.90;2.28;;;20.70;99.90;;;;;;4957699;29;20178;-82
2022/08/07 10:25:37;;;;;;;4.13;2.20;;;20.80;99.90;;;;;;4958709;29;20054;-82
2022/08/07 10:28:35;;;;;;;3.03;2.00;;;20.70;99.90;;;;;;4958099;29;20039;-83
2022/08/07 10:31:07;;;;;;;3.25;1.85;;;20.70;99.90;;;;;;4942111;29;20487;-83
2022/08/07 10:33:54;;;;;;;3.45;2.00;;;20.70;99.90;;;;;;4958444;29;20043;-81
2022/08/07 10:36:51;;;;;;;7.82;2.35;;;20.90;99.90;;;;;;4957490;29;20043;-85
2022/08/07 10:39:35;;;;;;;4.97;2.17;;;20.90;99.90;;;;;;4958761;28;20047;-82
2022/08/07 10:42:29;;;;;;;3.55;2.22;;;20.90;99.90;;;;;;4957987;28;20138;-82
2022/08/07 10:45:10;;;;;;;3.28;2.15;;;21.00;99.90;;;;;;4967366;28;20486;-77
2022/08/07 10:48:05;;;;;;;3.63;2.35;;;21.20;99.90;;;;;;4978476;28;20100;-82
2022/08/07 10:51:20;;;;;;;3.40;1.77;;;21.40;99.90;;;;;;4977390;28;20038;-83
2022/08/07 10:54:27;;;;;;;3.90;2.10;;;21.30;99.90;;;;;;4975590;28;20534;-77
2022/08/07 10:57:23;;;;;;;2.65;2.00;;;21.40;99.90;;;;;;4940757;28;20086;-75
2022/08/07 11:00:11;;;;;;;3.63;1.92;;;21.50;99.90;;;;;;4976602;28;20047;-81
2022/08/07 11:03:02;;;;;;;4.32;2.38;;;21.70;99.90;;;;;;4976262;28;20372;-83
2022/08/07 11:05:53;;;;;;;3.75;2.00;;;21.80;99.90;;;;;;4976399;28;20119;-77
2022/08/07 11:08:38;;;;;;;4.78;2.72;;;21.80;99.90;;;;;;4975538;28;20047;-79
2022/08/07 11:11:16;;;;;;;6.63;3.00;;;21.90;99.90;;;;;;4975558;28;20400;-81
2022/08/07 11:14:16;;;;;;;5.63;2.83;;;21.90;99.90;;;;;;4975727;28;20292;-78
2022/08/07 11:16:51;;;;;;;4.85;2.53;;;21.80;99.90;;;;;;4959639;28;20479;-77
2022/08/07 11:19:29;;;;;;;4.25;2.50;;;21.80;99.90;;;;;;4976738;28;20514;-79
2022/08/07 11:22:09;;;;;;;4.18;2.45;;;22.00;99.90;;;;;;4973956;28;20386;-77
2022/08/07 11:24:57;;;;;;;4.68;2.70;;;22.10;99.90;;;;;;4976708;28;20186;-76
2022/08/07 11:27:32;;;;;;;4.55;2.45;;;22.10;99.90;;;;;;4975891;28;20038;-80
2022/08/07 11:30:00;;;;;;;3.83;2.30;;;22.20;99.90;;;;;;4975420;28;20058;-78
2022/08/07 11:32:45;;;;;;;6.30;2.78;;;22.40;99.90;;;;;;4977023;28;20047;-80
2022/08/07 11:35:18;;;;;;;3.13;2.30;;;22.50;99.90;;;;;;4949492;28;20054;-80
2022/08/07 11:37:58;;;;;;;4.60;2.60;;;22.40;99.90;;;;;;4953892;29;20043;-80
2022/08/07 11:40:50;;;;;;;4.25;2.50;;;22.50;99.90;;;;;;4955916;29;20043;-80
2022/08/07 11:43:21;;;;;;;3.63;2.53;;;22.10;99.90;;;;;;4956323;29;20460;-78
2022/08/07 11:46:13;;;;;;;3.55;2.45;;;21.90;99.90;;;;;;4955844;29;20130;-78
2022/08/07 11:49:19;;;;;;;4.50;2.13;;;22.00;99.90;;;;;;4956170;29;20081;-80
2022/08/07 11:52:09;;;;;;;6.40;2.30;;;22.00;99.90;;;;;;4956012;29;20141;-79
2022/08/07 11:55:12;;;;;;;3.83;2.33;;;22.20;99.90;;;;;;4957573;28;20051;-79
2022/08/07 11:57:54;;;;;;;3.30;2.10;;;22.40;99.90;;;;;;4955934;29;20122;-79
2022/08/07 12:00:31;;;;;;;3.22;2.17;;;22.50;99.90;;;;;;4957674;28;20047;-82
2022/08/07 12:03:15;;;;;;;2.60;1.70;;;22.60;99.90;;;;;;4956313;29;20086;-80
2022/08/07 12:05:57;;;;;;;4.32;2.33;;;22.80;99.50;;;;;;4956183;29;20043;-78
2022/08/07 12:08:36;;;;;;;3.45;1.90;;;22.80;99.20;;;;;;4940383;29;20133;-81
2022/08/07 12:11:08;;;;;;;3.90;2.10;;;23.00;99.50;;;;;;4940219;29;20043;-79
2022/08/07 12:13:41;;;;;;;3.85;2.25;;;22.90;99.60;;;;;;4957385;29;20039;-80
2022/08/07 12:16:15;;;;;;;6.57;2.40;;;22.90;99.80;;;;;;4940190;29;20054;-80
2022/08/07 12:18:56;;;;;;;4.72;2.40;;;23.10;99.90;;;;;;4956244;29;20043;-82
2022/08/07 12:21:45;;;;;;;4.72;2.75;;;23.10;99.70;;;;;;4956034;29;20390;-81
2022/08/07 12:24:21;;;;;;;4.68;2.47;;;23.20;99.80;;;;;;4956055;29;20058;-82
2022/08/07 12:26:57;;;;;;;6.28;2.67;;;23.30;99.90;;;;;;4955550;29;20133;-79
2022/08/07 12:29:47;;;;;;;4.88;2.25;;;23.30;98.50;;;;;;4956901;28;20095;-80
2022/08/07 12:32:22;;;;;;;5.10;2.50;;;23.20;98.30;;;;;;4955333;29;20036;-79
2022/08/07 12:34:50;;;;;;;5.28;3.17;;;23.20;98.90;;;;;;4956314;29;20050;-80
2022/08/07 12:37:17;;;;;;;7.90;3.25;;;23.30;99.90;;;;;;4954701;28;20509;-80
2022/08/07 12:39:49;;;;;;;6.28;3.10;;;23.40;99.90;;;;;;4956941;28;20417;-83
2022/08/07 12:42:18;;;;;;;5.32;3.25;;;23.30;99.90;;;;;;4954967;29;20043;-76
2022/08/07 12:44:47;;;;;;;6.32;3.13;;;23.30;99.90;;;;;;4956057;28;20046;-78
2022/08/07 12:47:34;;;;;;;4.85;3.17;;;22.90;99.90;;;;;;4954904;29;20093;-76
2022/08/07 12:50:09;;;;;;;7.63;3.17;;;22.80;99.90;;;;;;4954981;28;20047;-78
2022/08/07 12:52:41;;;;;;;5.65;3.15;;;22.90;99.90;;;;;;4954485;29;20055;-77
2022/08/07 12:55:16;;;;;;;7.45;3.35;;;23.00;99.90;;;;;;4956244;28;20565;-78
2022/08/07 12:57:44;;;;;;;3.95;3.00;;;23.10;99.90;;;;;;4955092;28;20495;-76
2022/08/07 13:00:10;;;;;;;5.25;2.92;;;23.20;99.90;;;;;;4955835;28;20051;-76
2022/08/07 13:03:03;;;;;;;6.70;3.67;;;23.30;99.90;;;;;;4971173;28;20058;-76
2022/08/07 13:05:41;;;;;;;4.95;3.30;;;23.40;99.90;;;;;;4948867;28;20045;-76
2022/08/07 13:08:22;;;;;;;5.10;2.88;;;23.50;99.50;;;;;;4945228;28;20051;-78
2022/08/07 13:11:02;;;;;;;6.05;2.70;;;23.30;99.70;;;;;;4969789;28;20167;-78
2022/08/07 13:13:42;;;;;;;5.22;3.20;;;23.40;99.90;;;;;;4944832;28;20138;-76
2022/08/07 13:16:36;;;;;;;4.60;2.65;;;23.50;98.80;;;;;;4943705;28;20490;-75
2022/08/07 13:19:08;;;;;;;5.75;2.72;;;23.70;99.20;;;;;;4941907;28;20042;-76
2022/08/07 13:21:42;;;;;;;3.83;2.60;;;23.70;99.50;;;;;;4965891;28;20049;-77
2022/08/07 13:24:07;;;;;;;5.15;2.72;;;23.70;99.30;;;;;;4960277;28;20157;-77
2022/08/07 13:26:44;;;;;;;5.72;2.95;;;23.90;99.70;;;;;;4950634;28;20193;-76
2022/08/07 13:29:20;;;;;;;3.55;2.30;;;23.70;99.20;;;;;;4955526;28;20045;-76
2022/08/07 13:32:13;;;;;;;7.07;2.70;;;23.80;99.50;;;;;;4949122;28;20032;-78
2022/08/07 13:34:49;;;;;;;4.75;2.25;;;24.10;99.30;;;;;;4960907;28;20491;-75
2022/08/07 13:37:33;;;;;;;4.35;2.20;;;24.20;98.70;;;;;;4943567;28;20036;-76
2022/08/07 13:40:16;;;;;;;6.80;2.88;;;24.30;98.10;;;;;;4939258;28;20114;-76
2022/08/07 13:42:42;;;;;;;5.65;3.65;;;24.40;98.40;;;;;;4941850;28;20051;-77
2022/08/07 13:45:10;;;;;;;4.55;3.30;;;24.40;97.30;;;;;;4936032;28;20050;-76
2022/08/07 13:47:37;;;;;;;5.38;2.42;;;24.00;96.40;;;;;;4964545;28;20133;-77
2022/08/07 13:50:06;;;;;;;4.20;2.17;;;23.80;97.00;;;;;;4960849;28;20039;-77
2022/08/07 13:52:35;;;;;;;4.68;2.30;;;23.90;96.90;;;;;;4959082;28;20043;-76
2022/08/07 13:55:10;;;;;;;3.80;1.98;;;24.00;97.30;;;;;;4947789;28;20049;-77
2022/08/07 13:57:38;;;;;;;3.72;2.40;;;24.10;97.30;;;;;;4951869;28;20051;-78
2022/08/07 14:00:07;;;;;;;5.20;2.13;;;24.30;96.30;;;;;;4970540;28;20038;-76
2022/08/07 14:02:34;;;;;;;4.22;2.00;;;24.40;96.00;;;;;;4960065;28;20050;-77
2022/08/07 14:05:03;;;;;;;4.10;2.05;;;24.40;95.90;;;;;;4976139;28;20491;-78
2022/08/07 14:07:51;;;;;;;3.75;1.92;;;24.50;96.10;;;;;;4967727;28;20078;-77
2022/08/07 14:10:17;;;;;;;3.67;2.00;;;24.60;95.60;;;;;;4944248;28;20047;-77
2022/08/07 14:13:01;;;;;;;4.30;2.00;;;24.70;95.70;;;;;;4938035;28;20118;-77
2022/08/07 14:15:34;;;;;;;3.83;2.13;;;24.70;94.60;;;;;;4955621;28;20039;-78
2022/08/07 14:18:12;;;;;;;4.90;1.58;;;24.60;94.80;;;;;;4946561;28;20053;-79
2022/08/07 14:20:41;;;;;;;4.72;1.77;;;24.40;94.30;;;;;;4946119;28;20046;-77
2022/08/07 14:23:28;;;;;;;2.63;1.60;;;24.50;94.90;;;;;;4968397;28;20051;-75
2022/08/07 14:25:59;;;;;;;4.50;1.90;;;24.40;94.70;;;;;;4969760;28;20109;-78
2022/08/07 14:28:28;;;;;;;3.40;1.75;;;24.60;94.90;;;;;;4959927;28;20044;-78
2022/08/07 14:30:55;;;;;;;4.35;2.17;;;24.60;93.40;;;;;;4955688;28;20039;-77
2022/08/07 14:33:22;;;;;;;2.78;1.40;;;24.60;93.60;;;;;;4961017;28;20114;-77
2022/08/07 14:35:53;;;;;;;4.75;1.50;;;24.30;92.60;;;;;;4964354;28;20039;-78
2022/08/07 14:38:23;;;;;;;4.97;1.50;;;24.00;92.00;;;;;;4955109;28;20051;-78
2022/08/07 14:40:57;;;;;;;3.55;1.63;;;24.00;92.30;;;;;;4958191;28;20050;-77
2022/08/07 14:43:28;;;;;;;3.58;1.83;;;23.90;93.00;;;;;;4947442;28;20047;-77
2022/08/07 14:45:58;;;;;;;3.92;1.40;;;23.80;93.20;;;;;;4948852;29;20416;-77
2022/08/07 14:48:34;;;;;;;4.47;1.40;;;23.80;92.90;;;;;;4949778;28;20475;-76
2022/08/07 14:51:06;;;;;;;2.38;1.30;;;23.60;92.70;;;;;;4947397;29;20047;-75
2022/08/07 14:53:35;;;;;;;3.53;1.17;;;23.70;93.20;;;;;;4949643;28;20111;-77
2022/08/07 14:56:07;;;;;;;2.83;1.40;;;23.80;93.80;;;;;;4946885;28;20035;-76
2022/08/07 14:58:40;;;;;;;4.45;1.58;;;23.90;93.80;;;;;;4947947;28;20049;-78
2022/08/07 15:01:09;;;;;;;4.15;1.80;;;23.80;93.60;;;;;;4946454;29;20039;-78
2022/08/07 15:03:39;;;;;;;4.63;1.50;;;23.90;94.30;;;;;;4933586;29;20051;-76
2022/08/07 15:06:05;;;;;;;5.13;1.67;;;24.10;94.20;;;;;;4957607;28;20488;-79
2022/08/07 15:08:42;;;;;;;4.07;1.70;;;24.00;93.80;;;;;;4942095;29;20047;-78
2022/08/07 15:11:13;;;;;;;5.40;1.63;;;24.00;93.20;;;;;;4937394;29;20399;-78
2022/08/07 15:13:59;;;;;;;4.03;1.77;;;24.10;94.10;;;;;;4937133;29;20051;-75
2022/08/07 15:16:45;;;;;;;3.78;1.63;;;24.10;94.30;;;;;;4937246;29;20047;-77
2022/08/07 15:19:16;;;;;;;3.78;1.80;;;24.20;94.20;;;;;;4939005;29;20170;-78
2022/08/07 15:21:45;;;;;;;3.38;1.60;;;24.10;93.40;;;;;;4938234;29;20411;-79
2022/08/07 15:24:24;;;;;;;3.53;1.80;;;23.90;94.10;;;;;;4937032;29;20131;-76
2022/08/07 15:27:04;;;;;;;4.68;1.75;;;23.80;93.50;;;;;;4954480;29;20047;-75
2022/08/07 15:29:34;;;;;;;3.30;2.33;;;23.50;93.80;;;;;;4956140;29;20039;-78
2022/08/07 15:32:02;;;;;;;3.92;2.05;;;23.80;94.00;;;;;;4955925;28;20118;-76
2022/08/07 15:34:36;;;;;;;4.28;1.75;;;23.90;94.10;;;;;;4957112;28;20042;-78
2022/08/07 15:37:05;;;;;;;2.38;1.50;;;23.70;92.90;;;;;;4956196;29;20039;-77
2022/08/07 15:39:39;;;;;;;2.85;1.65;;;23.70;92.60;;;;;;4955578;29;20035;-76
2022/08/07 15:42:05;;;;;;;5.03;1.50;;;23.70;92.80;;;;;;4955752;29;20051;-76
2022/08/07 15:44:45;;;;;;;4.30;1.88;;;23.70;92.80;;;;;;4939856;29;20047;-76
2022/08/07 15:47:13;;;;;;;3.08;1.63;;;23.60;92.90;;;;;;4957555;28;20046;-79
2022/08/07 15:49:42;;;;;;;4.13;1.80;;;23.60;93.50;;;;;;4955730;29;20130;-78
2022/08/07 15:52:11;;;;;;;4.93;2.00;;;23.70;93.90;;;;;;4955485;29;20043;-77
2022/08/07 15:54:39;;;;;;;3.85;1.83;;;23.80;93.80;;;;;;4956316;29;20043;-75
2022/08/07 15:57:09;;;;;;;4.15;1.98;;;24.00;93.70;;;;;;4955458;29;20054;-77
2022/08/07 15:59:37;;;;;;;4.50;1.80;;;23.90;93.30;;;;;;4945862;29;20036;-78
2022/08/07 16:02:05;;;;;;;3.80;1.85;;;23.50;93.20;;;;;;4936053;29;20090;-77
2022/08/07 16:04:34;;;;;;;5.13;2.20;;;23.80;94.40;;;;;;4937613;29;20040;-77
2022/08/07 16:07:04;;;;;;;4.15;1.83;;;24.00;95.30;;;;;;4937306;29;20035;-78
2022/08/07 16:09:52;;;;;;;4.60;2.20;;;24.10;96.00;;;;;;4936062;29;20051;-78
2022/08/07 16:12:40;;;;;;;4.93;2.63;;;24.20;95.90;;;;;;4936867;29;20127;-76
2022/08/07 16:15:05;;;;;;;3.25;1.90;;;24.10;96.20;;;;;;4937206;29;20043;-76
2022/08/07 16:18:13;;;;;;;3.78;2.40;;;24.10;96.40;;;;;;4936017;29;20103;-75
2022/08/07 16:20:48;;;;;;;3.47;2.10;;;24.20;96.20;;;;;;4935940;29;20059;-76
2022/08/07 16:23:20;;;;;;;6.70;2.55;;;24.10;95.90;;;;;;4949005;29;20058;-75
2022/08/07 16:25:51;;;;;;;7.53;2.15;;;24.10;96.20;;;;;;4955720;29;20046;-78
2022/08/07 16:28:32;;;;;;;4.55;2.13;;;24.10;96.70;;;;;;4939111;29;20510;-77
2022/08/07 16:31:22;;;;;;;5.82;2.30;;;24.10;96.90;;;;;;4955055;28;20039;-77
2022/08/07 16:33:49;;;;;;;6.72;1.90;;;24.30;97.20;;;;;;4939231;29;20404;-78
2022/08/07 16:36:19;;;;;;;4.68;1.83;;;24.30;96.80;;;;;;4956332;28;20050;-77
2022/08/07 16:39:15;;;;;;;2.20;1.63;;;24.40;96.30;;;;;;4956289;28;20176;-76
2022/08/07 16:41:50;;;;;;;4.68;2.20;;;24.30;95.70;;;;;;4954543;28;20047;-78
2022/08/07 16:44:35;;;;;;;5.15;2.20;;;24.00;96.00;;;;;;4954937;29;20047;-78
2022/08/07 16:47:15;;;;;;;5.22;2.30;;;23.80;95.90;;;;;;4954493;29;20103;-75
2022/08/07 16:50:11;;;;;;;6.97;2.53;;;23.50;95.40;;;;;;4954907;29;20079;-78
2022/08/07 16:53:20;;;;;;;4.60;2.45;;;23.50;96.30;;;;;;4956627;28;20458;-78
2022/08/07 16:56:01;;;;;;;5.05;2.17;;;23.30;96.30;;;;;;4953755;29;20058;-77
2022/08/07 16:58:38;;;;;;;6.60;2.83;;;23.10;96.60;;;;;;4954735;29;20051;-76
2022/08/07 17:01:26;;;;;;;6.13;2.78;;;22.70;97.00;;;;;;4939401;29;20047;-76
2022/08/07 17:04:26;;;;;;;8.45;2.80;;;22.50;97.30;;;;;;4955082;29;20117;-78
2022/08/07 17:07:06;;;;;;;5.18;2.63;;;22.30;98.50;;;;;;4954826;29;20123;-77
2022/08/07 17:09:56;;;;;;;6.22;2.50;;;22.10;98.20;;;;;;4954794;29;20407;-79
2022/08/07 17:12:52;;;;;;;5.40;2.80;;;22.00;98.20;;;;;;4955222;28;20051;-78
2022/08/07 17:15:37;;;;;;;;;;;21.90;98.90;;;;;;4955318;29;20065;-78
2022/08/07 17:18:22;;;;;;;5.22;2.42;;;22.00;99.40;;;;;;4957948;29;19925;-75
2022/08/07 17:20:48;;;;;;;5.13;2.40;;;22.10;98.90;;;;;;4940202;29;20364;-76
2022/08/07 17:23:32;;;;;;;6.75;2.40;;;22.20;98.70;;;;;;4956380;29;20053;-74
2022/08/07 17:26:13;;;;;;;9.32;3.08;;;22.20;98.70;;;;;;4945975;29;20057;-76
2022/08/07 17:28:51;;;;;;;5.45;2.63;;;22.10;98.90;;;;;;4923200;29;20055;-77
2022/08/07 17:31:22;;;;;;;4.88;2.83;;;22.00;99.90;;;;;;4965444;28;20098;-76
2022/08/07 17:34:00;;;;;;;6.55;3.30;;;21.80;99.90;;;;;;4954217;28;20051;-77
2022/08/07 17:36:31;;;;;;;6.95;3.55;;;21.60;99.90;;;;;;4955849;28;20140;-76
2022/08/07 17:39:20;;;;;;;5.80;3.35;;;21.50;99.90;;;;;;4943325;29;20075;-75
2022/08/07 17:41:59;;;;;;;7.22;3.42;;;21.60;99.90;;;;;;4936531;29;20377;-76
2022/08/07 17:44:58;;;;;;;7.70;4.13;;;21.60;99.90;;;;;;4936388;29;20480;-76
2022/08/07 17:47:36;;;;;;;9.27;3.30;;;21.60;99.90;;;;;;4940241;29;20456;-78